Etusivu
METAR-TAF:

METAR-TAF

Lentoasemat :

Russian Mission, Alaska, Yhdysvallat

Leveyspiiri: 61-46-30N, Pituuspiiri: 161-19-10W, korkeus merenpinnasta: 16 m

Tämänhetkinen sää

Tämä raportti tehtiin 35 minuuttia sitten, kello 10.12 UTC
Tuuli 5 kn pohjoisesta/koillisesta
Lämpötila 12°C
Kosteus 100%
Ilmanpaine 1006 hPa
Näkyvyys: 16.1 km
Hajanaisia pilviä 1800 ft:n korkeudessa
Pilvistä 7000 ft:n korkeudessa
heikkoa sadetta

METAR: PARS 121012Z AUTO 03005KT 10SM -RA SCT018 OVC070 12/12 A2971 RMK AO2 P0000 $

Aika: 02:47 (10:47 UTC)


TAF: puuttuu

Säähavainnot ja -ennusteet yli 4000 lentoasemalta (METAR- ja TAF-raportit).

Käytössä olevat sääasemat on merkitty karttaan keltaisilla ja punaisilla pisteillä.

Aseta hiiri pisteen päälle nähdäksesi sääaseman nimen.

Klikkaa sitten nähdäksesi säähavainnot ja -ennusteet.

Kartan vaihtaminen: klikkaa mustalla rastilla varustettuja vihreitä pisteitä, niin voit zoomata sisään; viivalla varustettua vihreää pistettä, niin voit zoomata ulos tai vihreitä nuolia, niin pääset viereisille kartoille.


METAR-TAF: